createdAt,value
2023-04-09T00:01:55.716Z,49.05
2023-04-09T00:06:57.342Z,44.95
2023-04-09T00:11:59.140Z,43.72
2023-04-09T00:17:01.461Z,52.72
2023-04-09T00:22:03.064Z,39.55
2023-04-09T00:27:04.698Z,45.38
2023-04-09T00:32:06.762Z,51.10
2023-04-09T00:37:08.569Z,44.65
2023-04-09T00:42:10.240Z,43.25
2023-04-09T00:47:12.052Z,41.00
2023-04-09T00:52:13.792Z,32.03
2023-04-09T00:57:15.985Z,44.00
2023-04-09T01:02:17.708Z,42.20
2023-04-09T01:07:54.965Z,44.10
2023-04-09T01:13:06.294Z,39.28
2023-04-09T01:18:41.179Z,36.95
2023-04-09T01:23:54.940Z,36.45
2023-04-09T01:29:00.619Z,38.45
2023-04-09T01:34:02.739Z,39.20
2023-04-09T01:39:05.207Z,39.78
2023-04-09T01:44:07.944Z,37.80
2023-04-09T01:49:10.510Z,36.03
2023-04-09T01:54:12.107Z,39.17
2023-04-09T01:59:14.323Z,36.85
2023-04-09T02:04:44.252Z,36.08
2023-04-09T02:09:48.654Z,43.42
2023-04-09T02:14:52.568Z,40.05
2023-04-09T02:19:54.182Z,44.38
2023-04-09T02:24:55.886Z,43.03
2023-04-09T02:29:57.607Z,44.97
2023-04-09T02:34:59.328Z,42.80
2023-04-09T02:40:00.997Z,40.15
2023-04-09T02:45:02.643Z,44.33
2023-04-09T02:50:07.481Z,47.53
2023-04-09T02:55:11.327Z,39.22
2023-04-09T03:00:13.454Z,42.75
2023-04-09T03:05:15.535Z,46.30
2023-04-09T03:10:17.206Z,43.15
2023-04-09T03:15:19.121Z,48.65
2023-04-09T03:20:20.725Z,58.60
2023-04-09T03:25:22.468Z,48.28
2023-04-09T03:30:27.750Z,56.70
2023-04-09T03:35:31.745Z,46.17
2023-04-09T03:40:36.511Z,46.53
2023-04-09T03:45:38.298Z,49.50
2023-04-09T03:50:54.240Z,51.25
2023-04-09T03:56:04.981Z,40.72
2023-04-09T04:01:07.894Z,42.17
2023-04-09T04:06:14.868Z,49.60
2023-04-09T04:11:42.674Z,44.85
2023-04-09T04:16:45.365Z,50.50
2023-04-09T04:21:52.245Z,46.65
2023-04-09T04:26:54.659Z,47.13
2023-04-09T04:31:57.466Z,44.28
2023-04-09T04:37:02.933Z,40.97
2023-04-09T04:42:07.487Z,44.40
2023-04-09T04:47:09.263Z,41.80
2023-04-09T04:52:11.364Z,41.47
2023-04-09T04:57:17.515Z,39.72
2023-04-09T05:02:20.419Z,39.63
2023-04-09T05:07:42.177Z,33.65
2023-04-09T05:12:44.373Z,29.75
2023-04-09T05:17:48.798Z,34.10
2023-04-09T05:22:52.626Z,37.90
2023-04-09T05:28:01.967Z,35.47
2023-04-09T05:33:05.509Z,36.45
2023-04-09T05:38:08.058Z,42.47
2023-04-09T05:43:09.951Z,33.42
2023-04-09T05:48:18.523Z,32.10
2023-04-09T05:53:21.185Z,30.30
2023-04-09T05:58:22.926Z,27.02
2023-04-09T06:03:25.643Z,28.45
2023-04-09T06:08:28.858Z,26.65
2023-04-09T06:13:30.597Z,27.95
2023-04-09T06:18:32.722Z,25.73
2023-04-09T06:23:36.035Z,24.83
2023-04-09T06:28:37.988Z,24.98
2023-04-09T06:33:39.643Z,26.17
2023-04-09T06:38:41.282Z,26.73
2023-04-09T06:43:42.911Z,26.63
2023-04-09T06:48:44.818Z,24.90
2023-04-09T06:53:48.223Z,26.83
2023-04-09T06:58:50.169Z,25.27
2023-04-09T07:03:52.542Z,23.95
2023-04-09T07:08:54.813Z,25.80
2023-04-09T07:13:56.961Z,29.13
2023-04-09T07:18:58.643Z,29.00
2023-04-09T07:24:00.704Z,26.75
2023-04-09T07:29:03.766Z,26.58
2023-04-09T07:34:05.488Z,29.95
2023-04-09T07:39:07.120Z,27.85
2023-04-09T07:44:09.431Z,29.83
2023-04-09T07:49:11.194Z,34.05
2023-04-09T07:54:12.862Z,31.90
2023-04-09T07:59:17.423Z,32.78
2023-04-09T08:04:19.411Z,32.95
2023-04-09T08:09:21.326Z,35.25
2023-04-09T08:14:22.929Z,28.58
2023-04-09T08:19:24.826Z,31.13
2023-04-09T08:24:27.351Z,26.83
2023-04-09T08:29:29.336Z,27.65
2023-04-09T08:34:30.977Z,27.40
2023-04-09T08:39:33.041Z,29.05
2023-04-09T08:44:34.826Z,25.38
2023-04-09T08:49:36.639Z,28.92
2023-04-09T08:54:38.409Z,26.25
2023-04-09T08:59:40.062Z,28.48
2023-04-09T09:04:49.114Z,29.38
2023-04-09T09:09:52.708Z,32.67
2023-04-09T09:14:54.413Z,29.80
2023-04-09T09:19:56.145Z,28.02
2023-04-09T09:24:57.969Z,31.80
2023-04-09T09:29:59.659Z,27.40
2023-04-09T09:35:05.329Z,26.65
2023-04-09T09:40:07.838Z,33.78
2023-04-09T09:45:19.573Z,30.67
2023-04-09T09:50:25.151Z,28.23
2023-04-09T09:55:27.960Z,27.73
2023-04-09T10:00:32.620Z,29.10
2023-04-09T10:05:36.245Z,28.88
2023-04-09T10:10:39.365Z,26.95
2023-04-09T10:15:43.217Z,28.45
2023-04-09T10:20:59.508Z,26.65
2023-04-09T10:26:01.753Z,26.70
2023-04-09T10:31:05.356Z,25.80
2023-04-09T10:36:11.121Z,27.45
2023-04-09T10:41:31.501Z,27.10
2023-04-09T10:46:36.895Z,27.52
2023-04-09T10:51:39.239Z,28.73
2023-04-09T10:56:40.898Z,26.85
2023-04-09T11:01:52.665Z,26.83
2023-04-09T11:06:54.718Z,29.92
2023-04-09T11:11:57.848Z,26.40
2023-04-09T11:16:59.540Z,27.38
2023-04-09T11:22:09.347Z,24.33
2023-04-09T11:27:14.154Z,26.38
2023-04-09T11:32:15.829Z,27.23
2023-04-09T11:37:18.479Z,25.05
2023-04-09T11:42:21.992Z,26.15
2023-04-09T11:47:23.711Z,24.15
2023-04-09T11:52:25.649Z,23.98
2023-04-09T11:57:43.189Z,27.80
2023-04-09T12:02:49.327Z,21.20
2023-04-09T12:07:56.284Z,19.75
2023-04-09T12:13:03.405Z,22.73
2023-04-09T12:18:08.569Z,22.25
2023-04-09T12:23:11.657Z,19.25
2023-04-09T12:28:18.668Z,32.03
2023-04-09T12:33:21.371Z,22.70
2023-04-09T12:38:22.988Z,21.70
2023-04-09T12:43:24.601Z,20.30
2023-04-09T12:48:26.793Z,19.83
2023-04-09T12:53:28.553Z,17.48
2023-04-09T12:58:31.399Z,18.17
2023-04-09T13:03:33.300Z,18.83
2023-04-09T13:08:35.254Z,18.00
2023-04-09T13:13:36.910Z,16.88
2023-04-09T13:18:38.509Z,17.67
2023-04-09T13:23:40.570Z,18.55
2023-04-09T13:28:43.084Z,18.02
2023-04-09T13:33:45.964Z,19.60
2023-04-09T13:38:49.325Z,21.70
2023-04-09T13:43:51.308Z,20.60
2023-04-09T13:48:53.363Z,22.80
2023-04-09T13:53:55.107Z,23.83
2023-04-09T13:58:56.880Z,22.38
2023-04-09T14:03:58.630Z,21.63
2023-04-09T14:09:00.558Z,24.02
2023-04-09T14:14:02.284Z,18.88
2023-04-09T14:19:03.868Z,19.80
2023-04-09T14:24:05.984Z,19.85
2023-04-09T14:29:07.775Z,19.92
2023-04-09T14:34:09.367Z,17.02
2023-04-09T14:39:11.282Z,17.05
2023-04-09T14:44:12.956Z,15.93
2023-04-09T14:49:14.626Z,15.93
2023-04-09T14:54:16.803Z,16.38
2023-04-09T14:59:18.488Z,15.73
2023-04-09T15:04:20.150Z,16.65
2023-04-09T15:09:21.800Z,14.65
2023-04-09T15:14:24.071Z,12.20
2023-04-09T15:19:25.912Z,10.73
2023-04-09T15:24:27.553Z,9.70
2023-04-09T15:29:29.221Z,11.82
2023-04-09T15:34:31.054Z,12.60
2023-04-09T15:39:32.747Z,14.25
2023-04-09T15:44:34.662Z,12.35
2023-04-09T15:49:36.928Z,13.23
2023-04-09T15:54:38.660Z,14.27
2023-04-09T15:59:40.452Z,14.07
2023-04-09T16:04:42.236Z,12.43
2023-04-09T16:09:44.050Z,13.70
2023-04-09T16:14:45.787Z,13.73
2023-04-09T16:19:47.458Z,17.02
2023-04-09T16:24:51.644Z,14.55
2023-04-09T16:29:53.277Z,16.13
2023-04-09T16:34:56.093Z,14.93
2023-04-09T16:39:58.135Z,16.70
2023-04-09T16:45:00.038Z,16.27
2023-04-09T16:50:02.925Z,15.38
2023-04-09T16:55:05.273Z,15.77
2023-04-09T17:00:07.716Z,17.58
2023-04-09T17:05:09.889Z,16.83
2023-04-09T17:10:11.620Z,17.90
2023-04-09T17:15:13.280Z,15.57
2023-04-09T17:20:14.946Z,16.20
2023-04-09T17:25:16.898Z,15.77
2023-04-09T17:30:19.828Z,16.58
2023-04-09T17:35:21.456Z,18.58
2023-04-09T17:40:23.144Z,16.60
2023-04-09T17:45:24.820Z,17.20
2023-04-09T17:50:26.410Z,19.90
2023-04-09T17:55:28.253Z,16.80
2023-04-09T18:00:29.933Z,18.42
2023-04-09T18:05:31.746Z,17.92
2023-04-09T18:10:33.570Z,17.95
2023-04-09T18:15:35.525Z,18.73
2023-04-09T18:20:37.192Z,19.17
2023-04-09T18:25:38.941Z,19.00
2023-04-09T18:30:41.835Z,21.70
2023-04-09T18:35:43.493Z,21.15
2023-04-09T18:40:45.341Z,21.20
2023-04-09T18:45:47.204Z,19.73
2023-04-09T18:50:48.934Z,18.70
2023-04-09T18:55:50.582Z,19.35
2023-04-09T19:00:52.220Z,20.23
2023-04-09T19:05:53.847Z,16.27
2023-04-09T19:10:55.601Z,23.88
2023-04-09T19:15:57.274Z,18.58
2023-04-09T19:20:59.033Z,16.05
2023-04-09T19:26:01.209Z,19.13
2023-04-09T19:31:05.860Z,15.50
2023-04-09T19:36:08.196Z,15.60
2023-04-09T19:41:34.667Z,14.43
2023-04-09T19:46:36.334Z,19.98
2023-04-09T19:51:38.024Z,23.63
2023-04-09T19:56:39.636Z,22.52
2023-04-09T20:01:41.318Z,20.10
2023-04-09T20:06:44.257Z,24.25
2023-04-09T20:11:46.594Z,25.52
2023-04-09T20:16:48.330Z,29.48
2023-04-09T20:21:50.016Z,29.20
2023-04-09T20:26:52.098Z,34.15
2023-04-09T20:31:56.731Z,35.17
2023-04-09T20:37:00.682Z,34.35
2023-04-09T20:42:02.351Z,40.03
2023-04-09T20:47:04.001Z,30.58
2023-04-09T20:52:06.990Z,28.02
2023-04-09T20:57:11.059Z,23.80
2023-04-09T21:02:14.351Z,30.45
2023-04-09T21:07:16.223Z,25.25
2023-04-09T21:12:17.831Z,25.88
2023-04-09T21:17:19.516Z,37.85
2023-04-09T21:22:21.209Z,31.33
2023-04-09T21:27:23.206Z,30.52
2023-04-09T21:32:25.273Z,33.72
2023-04-09T21:37:34.955Z,32.83
2023-04-09T21:42:39.807Z,28.95
2023-04-09T21:47:41.447Z,31.70
2023-04-09T21:52:45.098Z,36.63
2023-04-09T21:57:47.016Z,34.85
2023-04-09T22:02:53.924Z,30.88
2023-04-09T22:07:56.075Z,27.70
2023-04-09T22:12:57.720Z,26.38
2023-04-09T22:17:59.494Z,30.67
2023-04-09T22:23:02.709Z,33.80
2023-04-09T22:28:07.367Z,31.67
2023-04-09T22:33:10.196Z,29.67
2023-04-09T22:38:16.230Z,34.63
2023-04-09T22:43:29.242Z,28.52
2023-04-09T22:48:38.166Z,29.02
2023-04-09T22:53:52.729Z,28.27
2023-04-09T22:58:54.611Z,30.50
2023-04-09T23:03:56.743Z,37.30
2023-04-09T23:08:59.871Z,39.03
2023-04-09T23:14:01.598Z,34.08
2023-04-09T23:19:03.578Z,30.05
2023-04-09T23:24:05.432Z,30.83
2023-04-09T23:29:07.312Z,29.40
2023-04-09T23:34:08.951Z,29.58
2023-04-09T23:39:10.992Z,27.92
2023-04-09T23:44:12.646Z,31.30
2023-04-09T23:49:16.115Z,33.50
2023-04-09T23:54:17.741Z,31.98
2023-04-09T23:59:19.413Z,31.23
